Time;durP1;ratioP1;P1;durP2;ratioP2;P2;SDS_P1;SDS_P2;PMS_P1;PMS_P2;Temp;Humidity;BMP_temperature;BMP_pressure;BME280_temperature;BME280_humidity;BME280_pressure;Samples;Min_cycle;Max_cycle;Signal;HPM_P1;HPM_P2
2023/05/22 00:00:44;;;;;;;7.88;7.28;;;;;;;;;;5028492;28;20991;-84
2023/05/22 00:03:10;;;;;;;7.90;7.30;;;;;;;;;;5020153;28;20388;-86
2023/05/22 00:05:39;;;;;;;7.40;6.80;;;;;;;;;;5028315;28;20723;-86
2023/05/22 00:08:10;;;;;;;8.02;7.45;;;;;;;;;;5018386;28;20880;-85
2023/05/22 00:10:37;;;;;;;7.57;7.07;;;;;;;;;;5022890;28;20389;-85
2023/05/22 00:13:03;;;;;;;7.60;7.00;;;;;;;;;;5021945;28;20420;-85
2023/05/22 00:15:29;;;;;;;7.78;7.18;;;;;;;;;;5016019;28;20429;-86
2023/05/22 00:17:55;;;;;;;8.97;8.27;;;;;;;;;;5019141;28;20391;-84
2023/05/22 00:20:22;;;;;;;8.73;8.02;;;;;;;;;;5011377;28;20424;-85
2023/05/22 00:22:48;;;;;;;9.52;8.73;;;;;;;;;;5021638;28;20482;-86
2023/05/22 00:25:16;;;;;;;9.47;8.77;;;;;;;;;;5022221;28;20384;-85
2023/05/22 00:27:42;;;;;;;9.68;8.88;;;;;;;;;;5023554;28;20492;-86
2023/05/22 00:30:09;;;;;;;9.45;8.75;;;;;;;;;;5013790;28;20947;-85
2023/05/22 00:32:35;;;;;;;8.30;7.65;;;;;;;;;;5021971;28;20876;-86
2023/05/22 00:35:01;;;;;;;9.00;8.30;;;;;;;;;;5023712;28;20428;-86
2023/05/22 00:37:27;;;;;;;8.02;7.32;;;;;;;;;;5014664;28;20397;-85
2023/05/22 00:39:53;;;;;;;7.43;6.93;;;;;;;;;;5026059;28;20752;-87
2023/05/22 00:42:19;;;;;;;7.60;7.10;;;;;;;;;;5012883;28;20441;-86
2023/05/22 00:44:47;;;;;;;7.60;7.10;;;;;;;;;;5016714;28;20910;-86
2023/05/22 00:47:13;;;;;;;7.97;7.38;;;;;;;;;;5021864;28;20469;-85
2023/05/22 00:49:39;;;;;;;7.90;7.37;;;;;;;;;;5023400;28;20740;-86
2023/05/22 00:52:05;;;;;;;7.70;7.10;;;;;;;;;;5015718;28;20397;-84
2023/05/22 00:54:31;;;;;;;7.40;6.85;;;;;;;;;;5024187;28;20491;-85
2023/05/22 00:56:59;;;;;;;7.22;6.68;;;;;;;;;;5016528;28;20411;-84
2023/05/22 00:59:25;;;;;;;7.78;7.18;;;;;;;;;;5026754;28;20382;-84
2023/05/22 01:01:51;;;;;;;7.55;7.05;;;;;;;;;;5019309;28;20392;-84
2023/05/22 01:04:17;;;;;;;6.93;6.43;;;;;;;;;;5013341;28;20389;-85
2023/05/22 01:06:45;;;;;;;7.57;7.07;;;;;;;;;;5019465;28;20397;-84
2023/05/22 01:09:11;;;;;;;7.80;7.28;;;;;;;;;;5022953;28;20873;-84
2023/05/22 01:11:39;;;;;;;7.80;7.10;;;;;;;;;;5024398;28;20387;-86
2023/05/22 01:14:10;;;;;;;7.73;7.13;;;;;;;;;;5027810;28;20395;-85
2023/05/22 01:16:36;;;;;;;7.50;6.90;;;;;;;;;;5019135;28;20421;-86
2023/05/22 01:19:02;;;;;;;7.75;7.15;;;;;;;;;;5022329;28;20462;-86
2023/05/22 01:21:31;;;;;;;7.60;7.07;;;;;;;;;;5027763;28;20819;-87
2023/05/22 01:24:17;;;;;;;7.70;7.10;;;;;;;;;;5022420;28;20389;-86
2023/05/22 01:26:43;;;;;;;8.98;8.07;;;;;;;;;;5025095;28;20439;-85
2023/05/22 01:29:27;;;;;;;7.57;6.97;;;;;;;;;;5031325;28;20387;-85
2023/05/22 01:31:55;;;;;;;8.00;7.40;;;;;;;;;;5031136;28;20383;-85
2023/05/22 01:34:21;;;;;;;7.57;7.07;;;;;;;;;;5024613;28;20406;-86
2023/05/22 01:36:48;;;;;;;8.38;7.63;;;;;;;;;;5019275;28;20898;-86
2023/05/22 01:39:14;;;;;;;8.18;7.50;;;;;;;;;;5033203;28;20403;-86
2023/05/22 01:41:40;;;;;;;8.07;7.45;;;;;;;;;;5030859;28;20881;-86
2023/05/22 01:44:06;;;;;;;8.60;8.00;;;;;;;;;;5029731;28;20397;-86
2023/05/22 01:46:32;;;;;;;8.07;7.40;;;;;;;;;;5031161;28;20387;-85
2023/05/22 01:48:59;;;;;;;7.82;7.22;;;;;;;;;;5030141;28;20715;-86
2023/05/22 01:51:51;;;;;;;7.63;7.13;;;;;;;;;;5030626;28;20445;-86
2023/05/22 01:54:17;;;;;;;8.80;8.02;;;;;;;;;;5031523;28;20395;-86
2023/05/22 01:56:47;;;;;;;8.40;7.80;;;;;;;;;;5031149;28;20434;-85
2023/05/22 01:59:17;;;;;;;8.95;8.35;;;;;;;;;;5030727;28;20387;-85
2023/05/22 02:01:43;;;;;;;7.68;7.07;;;;;;;;;;5031064;28;20394;-85
2023/05/22 02:04:10;;;;;;;8.45;7.65;;;;;;;;;;5030747;28;20445;-85
2023/05/22 02:06:36;;;;;;;7.82;7.28;;;;;;;;;;5030850;28;20382;-85
2023/05/22 02:09:02;;;;;;;8.13;7.53;;;;;;;;;;5030326;28;20383;-85
2023/05/22 02:11:30;;;;;;;8.52;7.93;;;;;;;;;;5012009;28;20425;-86
2023/05/22 02:13:56;;;;;;;9.57;8.73;;;;;;;;;;5012979;28;20398;-86
2023/05/22 02:16:23;;;;;;;9.32;8.63;;;;;;;;;;5030511;28;20504;-85
2023/05/22 02:18:50;;;;;;;11.07;10.07;;;;;;;;;;5030268;28;20378;-86
2023/05/22 02:21:16;;;;;;;9.60;8.80;;;;;;;;;;5030548;28;20390;-85
2023/05/22 02:23:42;;;;;;;9.60;8.70;;;;;;;;;;5031053;28;20389;-86
2023/05/22 02:26:08;;;;;;;9.70;8.97;;;;;;;;;;5030934;28;20821;-85
2023/05/22 02:28:34;;;;;;;8.68;8.07;;;;;;;;;;5030985;28;20394;-85
2023/05/22 02:31:02;;;;;;;8.98;8.27;;;;;;;;;;5030739;28;20379;-85
2023/05/22 02:33:28;;;;;;;8.77;8.18;;;;;;;;;;5031177;28;20874;-85
2023/05/22 02:35:54;;;;;;;9.25;8.50;;;;;;;;;;5031135;28;20506;-86
2023/05/22 02:38:20;;;;;;;9.63;8.82;;;;;;;;;;5029289;28;20470;-85
2023/05/22 02:40:46;;;;;;;9.18;8.48;;;;;;;;;;5030389;28;20897;-86
2023/05/22 02:43:12;;;;;;;10.88;10.07;;;;;;;;;;5030622;28;20422;-86
2023/05/22 02:45:38;;;;;;;9.50;8.80;;;;;;;;;;5030694;28;20422;-86
2023/05/22 02:48:04;;;;;;;9.38;8.68;;;;;;;;;;5030426;28;20742;-86
2023/05/22 02:50:30;;;;;;;9.77;8.97;;;;;;;;;;5030179;28;20727;-85
2023/05/22 02:52:56;;;;;;;9.00;8.20;;;;;;;;;;5030716;28;20406;-86
2023/05/22 02:55:22;;;;;;;8.60;8.00;;;;;;;;;;5033845;28;20421;-86
2023/05/22 02:57:48;;;;;;;8.55;7.95;;;;;;;;;;5030830;28;20398;-85
2023/05/22 03:00:15;;;;;;;8.95;8.35;;;;;;;;;;5027044;28;20722;-85
2023/05/22 03:02:41;;;;;;;8.75;8.05;;;;;;;;;;5030900;28;20466;-86
2023/05/22 03:05:07;;;;;;;9.10;8.40;;;;;;;;;;5030888;28;20952;-85
2023/05/22 03:07:33;;;;;;;8.52;7.93;;;;;;;;;;5030670;28;20908;-86
2023/05/22 03:09:59;;;;;;;9.27;8.43;;;;;;;;;;5030077;28;20387;-85
2023/05/22 03:12:25;;;;;;;9.65;8.82;;;;;;;;;;5033534;28;20398;-86
2023/05/22 03:14:51;;;;;;;8.83;8.10;;;;;;;;;;5033893;28;20415;-85
2023/05/22 03:17:17;;;;;;;9.60;8.80;;;;;;;;;;5033832;28;20489;-85
2023/05/22 03:19:43;;;;;;;9.43;8.65;;;;;;;;;;5033461;28;20394;-86
2023/05/22 03:22:09;;;;;;;9.30;8.40;;;;;;;;;;5032065;28;20904;-85
2023/05/22 03:24:35;;;;;;;10.30;9.50;;;;;;;;;;5033134;28;20448;-86
2023/05/22 03:27:01;;;;;;;9.30;8.60;;;;;;;;;;5033648;28;20391;-85
2023/05/22 03:29:27;;;;;;;11.07;9.98;;;;;;;;;;5032737;28;20406;-86
2023/05/22 03:31:54;;;;;;;9.73;9.02;;;;;;;;;;5033669;28;20726;-85
2023/05/22 03:34:21;;;;;;;8.90;8.20;;;;;;;;;;5036821;28;20462;-86
2023/05/22 03:36:47;;;;;;;9.07;8.18;;;;;;;;;;5033829;28;20419;-85
2023/05/22 03:39:13;;;;;;;8.82;8.18;;;;;;;;;;5021094;28;20412;-86
2023/05/22 03:41:39;;;;;;;8.65;7.93;;;;;;;;;;5027112;28;20524;-85
2023/05/22 03:44:05;;;;;;;9.73;8.52;;;;;;;;;;5027129;28;20395;-85
2023/05/22 03:46:31;;;;;;;10.00;9.10;;;;;;;;;;5032446;28;20386;-85
2023/05/22 03:48:57;;;;;;;8.77;8.18;;;;;;;;;;5032209;28;20394;-85
2023/05/22 03:51:23;;;;;;;8.67;8.07;;;;;;;;;;5032729;28;20387;-83
2023/05/22 03:53:49;;;;;;;9.30;8.60;;;;;;;;;;5033298;28;20737;-83
2023/05/22 03:56:15;;;;;;;9.48;8.88;;;;;;;;;;5033286;28;20506;-83
2023/05/22 03:58:41;;;;;;;9.25;8.65;;;;;;;;;;5033512;28;20398;-83
2023/05/22 04:01:08;;;;;;;9.02;8.27;;;;;;;;;;5044953;28;20478;-83
2023/05/22 04:03:35;;;;;;;9.48;8.68;;;;;;;;;;5033442;28;20541;-83
2023/05/22 04:06:02;;;;;;;8.85;8.25;;;;;;;;;;5033147;28;20386;-83
2023/05/22 04:08:29;;;;;;;8.40;7.80;;;;;;;;;;5032759;28;20383;-83
2023/05/22 04:10:55;;;;;;;8.48;7.88;;;;;;;;;;5032425;28;20384;-84
2023/05/22 04:13:21;;;;;;;9.57;8.77;;;;;;;;;;5032905;28;20386;-83
2023/05/22 04:15:48;;;;;;;9.17;8.47;;;;;;;;;;5032456;28;20509;-82
2023/05/22 04:18:14;;;;;;;8.63;8.02;;;;;;;;;;5032632;28;20461;-82
2023/05/22 04:20:41;;;;;;;8.70;8.05;;;;;;;;;;5032299;28;20509;-82
2023/05/22 04:23:08;;;;;;;8.23;7.63;;;;;;;;;;5032602;28;20384;-82
2023/05/22 04:25:35;;;;;;;9.00;8.40;;;;;;;;;;5032825;28;20738;-83
2023/05/22 04:28:02;;;;;;;8.25;7.65;;;;;;;;;;5032802;28;20387;-83
2023/05/22 04:30:28;;;;;;;8.77;8.07;;;;;;;;;;5031191;28;20734;-83
2023/05/22 04:32:55;;;;;;;9.02;8.43;;;;;;;;;;5032474;28;20379;-83
2023/05/22 04:35:21;;;;;;;9.05;8.38;;;;;;;;;;5031637;28;20411;-83
2023/05/22 04:37:47;;;;;;;8.70;8.10;;;;;;;;;;5032151;28;20454;-83
2023/05/22 04:40:14;;;;;;;9.18;8.48;;;;;;;;;;5032003;28;20462;-84
2023/05/22 04:42:41;;;;;;;9.57;8.75;;;;;;;;;;5032363;28;20805;-83
2023/05/22 04:45:07;;;;;;;10.27;9.38;;;;;;;;;;5032129;28;20916;-83
2023/05/22 04:47:33;;;;;;;8.50;7.80;;;;;;;;;;5025908;28;20387;-83
2023/05/22 04:50:01;;;;;;;8.90;8.30;;;;;;;;;;5033094;28;20391;-83
2023/05/22 04:52:27;;;;;;;9.55;8.75;;;;;;;;;;5032323;28;20730;-83
2023/05/22 04:54:54;;;;;;;10.13;9.23;;;;;;;;;;5031645;28;20415;-83
2023/05/22 04:57:20;;;;;;;10.23;9.40;;;;;;;;;;5032053;28;20411;-84
2023/05/22 04:59:46;;;;;;;10.70;9.80;;;;;;;;;;5030680;28;20397;-83
2023/05/22 05:02:13;;;;;;;10.73;9.88;;;;;;;;;;5030002;28;20379;-84
2023/05/22 05:04:39;;;;;;;10.45;9.55;;;;;;;;;;5031968;28;20839;-83
2023/05/22 05:07:05;;;;;;;10.32;9.43;;;;;;;;;;5031677;28;20409;-83
2023/05/22 05:09:31;;;;;;;10.13;9.32;;;;;;;;;;5031450;28;20798;-84
2023/05/22 05:11:58;;;;;;;10.57;9.40;;;;;;;;;;5031768;28;20720;-83
2023/05/22 05:14:24;;;;;;;11.00;10.03;;;;;;;;;;5030372;28;20436;-83
2023/05/22 05:16:50;;;;;;;10.82;9.93;;;;;;;;;;5022727;28;20415;-84
2023/05/22 05:19:19;;;;;;;10.50;9.70;;;;;;;;;;5029376;28;20375;-83
2023/05/22 05:21:45;;;;;;;10.27;9.48;;;;;;;;;;5027899;28;20391;-85
2023/05/22 05:24:11;;;;;;;10.80;10.00;;;;;;;;;;5016782;28;20389;-83
2023/05/22 05:26:37;;;;;;;11.07;10.17;;;;;;;;;;5031225;28;20596;-82
2023/05/22 05:29:03;;;;;;;10.65;9.68;;;;;;;;;;5031839;28;20786;-82
2023/05/22 05:31:29;;;;;;;10.68;9.77;;;;;;;;;;5031006;28;20383;-83
2023/05/22 05:33:57;;;;;;;10.77;9.88;;;;;;;;;;5029970;28;20405;-83
2023/05/22 05:36:24;;;;;;;9.97;9.13;;;;;;;;;;5030712;28;20816;-83
2023/05/22 05:38:50;;;;;;;9.65;8.95;;;;;;;;;;5023560;28;20435;-83
2023/05/22 05:41:17;;;;;;;9.55;8.75;;;;;;;;;;5029137;28;20441;-83
2023/05/22 05:43:46;;;;;;;9.25;8.55;;;;;;;;;;5031920;28;20391;-84
2023/05/22 05:46:12;;;;;;;9.27;8.48;;;;;;;;;;5030711;28;20526;-83
2023/05/22 05:48:39;;;;;;;8.60;7.95;;;;;;;;;;5030910;28;20383;-83
2023/05/22 05:51:05;;;;;;;8.75;8.02;;;;;;;;;;5030007;28;20437;-84
2023/05/22 05:53:31;;;;;;;9.23;8.45;;;;;;;;;;5030462;28;20439;-84
2023/05/22 05:55:57;;;;;;;8.80;8.10;;;;;;;;;;5032110;28;20423;-84
2023/05/22 05:58:23;;;;;;;8.93;8.23;;;;;;;;;;5031061;28;20908;-84
2023/05/22 06:00:49;;;;;;;8.43;7.82;;;;;;;;;;5030447;28;20445;-84
2023/05/22 06:03:16;;;;;;;8.27;7.67;;;;;;;;;;5030774;28;20387;-84
2023/05/22 06:05:44;;;;;;;8.32;7.57;;;;;;;;;;5030564;28;20407;-85
2023/05/22 06:08:10;;;;;;;7.80;7.20;;;;;;;;;;5004763;28;20391;-84
2023/05/22 06:10:37;;;;;;;8.00;7.30;;;;;;;;;;5030476;28;20390;-84
2023/05/22 06:13:03;;;;;;;7.20;6.63;;;;;;;;;;5030637;28;20414;-83
2023/05/22 06:15:30;;;;;;;7.88;7.28;;;;;;;;;;5030239;28;20809;-84
2023/05/22 06:17:56;;;;;;;7.50;6.85;;;;;;;;;;5030460;28;20383;-85
2023/05/22 06:20:23;;;;;;;7.60;7.00;;;;;;;;;;5030127;28;20402;-84
2023/05/22 06:22:52;;;;;;;7.72;7.03;;;;;;;;;;5031064;28;20383;-84
2023/05/22 06:25:24;;;;;;;7.07;6.50;;;;;;;;;;5031013;28;20426;-84
2023/05/22 06:27:50;;;;;;;6.93;6.32;;;;;;;;;;5028975;28;20884;-85
2023/05/22 06:30:19;;;;;;;7.28;6.78;;;;;;;;;;5030127;28;20474;-85
2023/05/22 06:32:45;;;;;;;6.72;6.22;;;;;;;;;;5030170;28;20390;-84
2023/05/22 06:35:11;;;;;;;6.40;5.90;;;;;;;;;;5030657;28;20470;-85
2023/05/22 06:37:37;;;;;;;6.25;5.75;;;;;;;;;;5030450;28;20397;-85
2023/05/22 06:40:04;;;;;;;7.00;6.40;;;;;;;;;;5029404;28;20391;-85
2023/05/22 06:42:30;;;;;;;6.30;5.90;;;;;;;;;;5029251;28;20878;-85
2023/05/22 06:44:56;;;;;;;6.25;5.85;;;;;;;;;;5031308;28;20805;-83
2023/05/22 06:47:26;;;;;;;6.72;6.32;;;;;;;;;;5035301;28;20397;-84
2023/05/22 06:49:58;;;;;;;6.88;6.28;;;;;;;;;;5033720;28;20375;-86
2023/05/22 06:52:26;;;;;;;6.33;5.83;;;;;;;;;;5039739;28;20386;-84
2023/05/22 06:54:53;;;;;;;6.67;6.13;;;;;;;;;;5037320;28;20508;-85
2023/05/22 06:57:19;;;;;;;6.43;6.00;;;;;;;;;;5033494;28;20391;-85
2023/05/22 06:59:45;;;;;;;6.40;5.90;;;;;;;;;;5015810;28;20390;-85
2023/05/22 07:02:14;;;;;;;6.40;5.90;;;;;;;;;;5034030;28;20486;-85
2023/05/22 07:04:40;;;;;;;6.13;5.70;;;;;;;;;;5034109;28;20422;-85
2023/05/22 07:07:08;;;;;;;6.53;6.07;;;;;;;;;;5033733;28;20411;-85
2023/05/22 07:09:34;;;;;;;6.57;5.97;;;;;;;;;;5029243;28;20387;-85
2023/05/22 07:12:03;;;;;;;6.50;6.00;;;;;;;;;;5033667;28;20411;-85
2023/05/22 07:14:29;;;;;;;6.05;5.57;;;;;;;;;;5032155;28;20869;-87
2023/05/22 07:16:55;;;;;;;6.57;6.07;;;;;;;;;;5030592;28;20400;-88
2023/05/22 07:19:21;;;;;;;6.30;5.80;;;;;;;;;;5029614;28;20486;-87
2023/05/22 07:21:47;;;;;;;6.45;5.85;;;;;;;;;;5026917;28;20397;-87
2023/05/22 07:24:13;;;;;;;6.13;5.70;;;;;;;;;;5017210;28;20400;-86
2023/05/22 07:26:45;;;;;;;6.05;5.60;;;;;;;;;;5033524;28;20762;-86
2023/05/22 07:29:11;;;;;;;5.90;5.40;;;;;;;;;;5032754;28;20406;-83
2023/05/22 07:31:37;;;;;;;14.23;6.28;;;;;;;;;;5033562;28;20462;-83
2023/05/22 07:34:03;;;;;;;5.97;5.47;;;;;;;;;;5034747;28;20391;-81
2023/05/22 07:36:30;;;;;;;5.93;5.43;;;;;;;;;;5032934;28;20398;-81
2023/05/22 07:38:56;;;;;;;6.07;5.68;;;;;;;;;;5023117;28;20389;-81
2023/05/22 07:41:23;;;;;;;6.32;5.82;;;;;;;;;;5031848;28;20391;-81
2023/05/22 07:43:49;;;;;;;5.93;5.45;;;;;;;;;;5033189;28;20463;-81
2023/05/22 07:46:15;;;;;;;6.05;5.28;;;;;;;;;;5032698;28;20407;-82
2023/05/22 07:48:41;;;;;;;5.75;5.22;;;;;;;;;;5011496;28;20443;-82
2023/05/22 07:51:07;;;;;;;5.30;4.90;;;;;;;;;;5033247;28;20400;-80
2023/05/22 07:53:33;;;;;;;6.10;5.60;;;;;;;;;;5034089;28;20882;-82
2023/05/22 07:55:59;;;;;;;5.88;5.25;;;;;;;;;;5015212;28;20395;-82
2023/05/22 07:58:25;;;;;;;5.35;4.95;;;;;;;;;;5037199;28;20846;-82
2023/05/22 08:00:51;;;;;;;5.50;5.10;;;;;;;;;;5032749;28;20417;-82
2023/05/22 08:03:17;;;;;;;5.68;5.18;;;;;;;;;;5033174;28;20394;-89
2023/05/22 08:05:44;;;;;;;5.63;5.13;;;;;;;;;;5032937;28;20430;-87
2023/05/22 08:08:10;;;;;;;5.40;5.00;;;;;;;;;;5033168;28;20450;-88
2023/05/22 08:10:36;;;;;;;5.85;5.32;;;;;;;;;;5032631;28;20742;-85
2023/05/22 08:13:05;;;;;;;5.53;5.03;;;;;;;;;;5033199;28;20391;-88
2023/05/22 08:15:34;;;;;;;5.55;5.05;;;;;;;;;;5033223;28;20386;-88
2023/05/22 08:18:01;;;;;;;5.30;4.90;;;;;;;;;;5019609;28;20379;-88
2023/05/22 08:20:27;;;;;;;5.38;4.88;;;;;;;;;;5032489;28;20379;-87
2023/05/22 08:22:53;;;;;;;5.03;4.67;;;;;;;;;;5032489;28;20405;-87
2023/05/22 08:25:19;;;;;;;5.85;5.03;;;;;;;;;;5032593;28;20442;-83
2023/05/22 08:27:45;;;;;;;5.15;4.75;;;;;;;;;;5032480;28;20375;-83
2023/05/22 08:30:11;;;;;;;5.25;4.85;;;;;;;;;;5030053;28;20398;-85
2023/05/22 08:32:37;;;;;;;5.40;4.90;;;;;;;;;;5038578;28;20381;-86
2023/05/22 08:35:03;;;;;;;6.13;4.95;;;;;;;;;;5042542;28;20888;-85
2023/05/22 08:37:29;;;;;;;5.38;4.97;;;;;;;;;;5032581;28;20394;-87
2023/05/22 08:39:55;;;;;;;5.37;4.97;;;;;;;;;;5032147;28;20455;-87
2023/05/22 08:42:21;;;;;;;5.30;4.90;;;;;;;;;;5032523;28;20418;-87
2023/05/22 08:44:48;;;;;;;6.47;5.22;;;;;;;;;;5042555;28;20403;-87
2023/05/22 08:47:14;;;;;;;5.47;4.93;;;;;;;;;;5032523;28;20390;-87
2023/05/22 08:49:41;;;;;;;5.28;4.85;;;;;;;;;;5031536;28;20793;-85
2023/05/22 08:52:12;;;;;;;5.07;4.57;;;;;;;;;;5013559;28;20392;-86
2023/05/22 08:54:42;;;;;;;4.88;4.50;;;;;;;;;;5032182;28;20391;-86
2023/05/22 08:57:08;;;;;;;5.30;4.80;;;;;;;;;;5018708;28;20398;-88
2023/05/22 08:59:35;;;;;;;5.13;4.72;;;;;;;;;;5032685;28;20387;-88
2023/05/22 09:02:03;;;;;;;5.57;5.17;;;;;;;;;;5031637;28;20881;-87
2023/05/22 09:04:29;;;;;;;5.32;4.93;;;;;;;;;;5032128;28;20866;-86
2023/05/22 09:06:55;;;;;;;5.55;5.15;;;;;;;;;;5032075;28;20426;-87
2023/05/22 09:09:21;;;;;;;5.47;5.05;;;;;;;;;;5029541;28;20545;-87
2023/05/22 09:11:47;;;;;;;5.63;5.00;;;;;;;;;;5027038;28;20383;-87
2023/05/22 09:14:14;;;;;;;5.32;4.90;;;;;;;;;;5029198;28;20441;-86
2023/05/22 09:16:47;;;;;;;5.00;4.70;;;;;;;;;;5032055;28;20530;-87
2023/05/22 09:19:13;;;;;;;10.15;5.15;;;;;;;;;;5013361;28;20791;-86
2023/05/22 09:21:40;;;;;;;25.38;6.10;;;;;;;;;;5031184;28;20401;-88
2023/05/22 09:24:10;;;;;;;6.60;4.90;;;;;;;;;;5030926;28;20426;-86
2023/05/22 09:26:37;;;;;;;5.85;5.35;;;;;;;;;;5030879;28;20422;-87
2023/05/22 09:29:04;;;;;;;6.20;5.70;;;;;;;;;;5030590;28;20389;-86
2023/05/22 09:31:31;;;;;;;5.47;4.97;;;;;;;;;;5032380;28;20419;-87
2023/05/22 09:33:58;;;;;;;5.40;5.00;;;;;;;;;;5013385;28;20383;-87
2023/05/22 09:36:33;;;;;;;8.30;7.47;;;;;;;;;;5031546;28;20880;-88
2023/05/22 09:39:00;;;;;;;5.60;4.50;;;;;;;;;;5022360;28;20884;-87
2023/05/22 09:41:29;;;;;;;6.70;5.20;;;;;;;;;;5031113;28;20462;-87
2023/05/22 09:43:55;;;;;;;5.20;4.78;;;;;;;;;;5031262;28;20386;-87
2023/05/22 09:46:21;;;;;;;5.57;5.13;;;;;;;;;;5030994;28;20445;-86
2023/05/22 09:48:51;;;;;;;5.40;4.97;;;;;;;;;;5013143;28;20446;-87
2023/05/22 09:51:17;;;;;;;7.47;5.35;;;;;;;;;;5030254;28;20395;-87
2023/05/22 09:53:44;;;;;;;7.20;6.60;;;;;;;;;;5033890;28;20486;-87
2023/05/22 09:56:12;;;;;;;7.72;7.03;;;;;;;;;;5021359;28;20874;-88
2023/05/22 09:58:40;;;;;;;6.70;6.20;;;;;;;;;;5030965;28;20850;-86
2023/05/22 10:01:09;;;;;;;5.50;5.10;;;;;;;;;;5031146;28;20914;-84
2023/05/22 10:03:36;;;;;;;5.25;4.85;;;;;;;;;;5031026;28;20806;-85
2023/05/22 10:06:03;;;;;;;5.40;4.90;;;;;;;;;;5037650;28;20417;-85
2023/05/22 10:08:33;;;;;;;5.07;4.68;;;;;;;;;;5031268;28;20391;-84
2023/05/22 10:11:00;;;;;;;6.05;5.45;;;;;;;;;;5030627;28;20874;-84
2023/05/22 10:13:27;;;;;;;5.13;4.63;;;;;;;;;;5030948;28;20722;-85
2023/05/22 10:15:53;;;;;;;5.15;4.72;;;;;;;;;;5030812;28;20387;-85
2023/05/22 10:18:19;;;;;;;4.72;4.32;;;;;;;;;;5030721;28;20539;-87
2023/05/22 10:20:45;;;;;;;5.63;5.10;;;;;;;;;;5033267;28;20418;-87
2023/05/22 10:23:12;;;;;;;4.93;4.43;;;;;;;;;;5033692;28;20454;-87
2023/05/22 10:25:38;;;;;;;9.23;7.50;;;;;;;;;;5034903;28;20917;-86
2023/05/22 10:28:04;;;;;;;5.65;5.07;;;;;;;;;;5033500;28;20387;-86
2023/05/22 10:30:39;;;;;;;5.20;4.80;;;;;;;;;;5032030;28;20426;-86
2023/05/22 10:33:05;;;;;;;4.60;4.20;;;;;;;;;;5034722;28;20750;-86
2023/05/22 10:35:38;;;;;;;5.05;4.65;;;;;;;;;;5036167;28;20398;-88
2023/05/22 10:38:25;;;;;;;5.47;4.80;;;;;;;;;;5036187;28;20440;-85
2023/05/22 10:40:52;;;;;;;6.25;5.72;;;;;;;;;;5015151;28;20521;-86
2023/05/22 10:43:18;;;;;;;20.60;7.63;;;;;;;;;;5016922;28;20528;-85
2023/05/22 10:45:46;;;;;;;5.10;4.60;;;;;;;;;;5034511;28;20960;-85
2023/05/22 10:48:12;;;;;;;7.70;4.68;;;;;;;;;;5033635;28;20500;-87
2023/05/22 10:50:38;;;;;;;9.23;4.50;;;;;;;;;;5015509;28;20971;-85
2023/05/22 10:53:23;;;;;;;14.75;4.63;;;;;;;;;;5033637;28;20391;-86
2023/05/22 10:55:53;;;;;;;8.70;4.13;;;;;;;;;;5034680;28;20402;-89
2023/05/22 10:58:29;;;;;;;4.22;3.92;;;;;;;;;;5034434;28;20414;-87
2023/05/22 11:01:12;;;;;;;8.13;4.85;;;;;;;;;;5035009;28;20387;-87
2023/05/22 11:03:52;;;;;;;10.57;4.72;;;;;;;;;;5034341;28;20434;-87
2023/05/22 11:06:36;;;;;;;6.72;3.97;;;;;;;;;;5021883;28;20437;-88
2023/05/22 11:09:18;;;;;;;9.33;4.70;;;;;;;;;;5032073;28;20738;-87
2023/05/22 11:11:45;;;;;;;4.45;4.07;;;;;;;;;;5032362;28;20393;-86
2023/05/22 11:14:12;;;;;;;8.60;4.75;;;;;;;;;;5032432;28;20386;-87
2023/05/22 11:16:38;;;;;;;6.00;4.40;;;;;;;;;;5027963;28;20449;-86
2023/05/22 11:19:08;;;;;;;4.00;3.70;;;;;;;;;;5027750;28;20403;-86
2023/05/22 11:21:44;;;;;;;5.22;4.72;;;;;;;;;;5031153;28;20414;-88
2023/05/22 11:24:10;;;;;;;9.77;5.40;;;;;;;;;;5014864;28;20885;-87
2023/05/22 11:26:36;;;;;;;4.20;3.77;;;;;;;;;;5025447;28;20422;-86
2023/05/22 11:29:06;;;;;;;6.38;5.30;;;;;;;;;;5033793;28;20466;-87
2023/05/22 11:31:32;;;;;;;3.88;3.58;;;;;;;;;;5033369;28;20465;-88
2023/05/22 11:33:58;;;;;;;8.43;3.97;;;;;;;;;;5033572;28;20383;-88
2023/05/22 11:36:24;;;;;;;8.98;3.88;;;;;;;;;;5032627;28;20407;-89
2023/05/22 11:38:50;;;;;;;3.75;3.45;;;;;;;;;;5014655;28;20430;-88
2023/05/22 11:41:16;;;;;;;7.22;4.25;;;;;;;;;;5029125;28;20435;-88
2023/05/22 11:43:42;;;;;;;4.32;3.45;;;;;;;;;;5031019;28;21315;-89
2023/05/22 11:46:09;;;;;;;6.13;3.88;;;;;;;;;;5030047;28;20414;-92
2023/05/22 11:50:49;;;;;;;10.20;4.30;;;;;;;;;;5076273;28;20376;-88
2023/05/22 11:53:16;;;;;;;30.47;4.40;;;;;;;;;;5085378;28;20771;-88
2023/05/22 11:55:42;;;;;;;4.75;3.33;;;;;;;;;;5088361;28;20383;-87
2023/05/22 11:58:08;;;;;;;4.32;3.70;;;;;;;;;;5084204;28;20391;-88
2023/05/22 12:00:34;;;;;;;20.02;4.20;;;;;;;;;;5083734;28;20421;-88
2023/05/22 12:03:00;;;;;;;30.15;5.32;;;;;;;;;;5076898;28;20415;-87
2023/05/22 12:05:26;;;;;;;6.13;3.67;;;;;;;;;;5077967;28;20382;-92
2023/05/22 12:07:52;;;;;;;3.80;3.25;;;;;;;;;;5262509;22;20787;-88
2023/05/22 12:10:18;;;;;;;3.95;3.65;;;;;;;;;;5034171;28;20416;-86
2023/05/22 12:12:44;;;;;;;3.90;3.50;;;;;;;;;;5044385;28;20871;-88
2023/05/22 12:15:10;;;;;;;3.97;3.58;;;;;;;;;;5042075;28;20374;-86
2023/05/22 12:17:37;;;;;;;3.90;3.58;;;;;;;;;;5042934;28;20734;-86
2023/05/22 12:20:03;;;;;;;3.97;3.67;;;;;;;;;;5040123;28;20394;-86
2023/05/22 12:22:29;;;;;;;4.97;3.90;;;;;;;;;;5039703;28;20940;-86
2023/05/22 12:24:55;;;;;;;4.00;3.70;;;;;;;;;;5022057;28;20769;-85
2023/05/22 12:27:21;;;;;;;7.50;4.10;;;;;;;;;;5032178;28;20391;-85
2023/05/22 12:29:47;;;;;;;8.02;4.00;;;;;;;;;;5027204;28;20443;-85
2023/05/22 12:32:13;;;;;;;41.50;6.60;;;;;;;;;;5033572;28;20429;-84
2023/05/22 12:34:44;;;;;;;6.82;3.65;;;;;;;;;;5035987;28;20419;-85
2023/05/22 12:37:36;;;;;;;3.95;3.65;;;;;;;;;;5033026;28;20383;-85
2023/05/22 12:40:03;;;;;;;3.88;3.58;;;;;;;;;;5033529;28;20458;-85
2023/05/22 12:42:29;;;;;;;4.05;3.75;;;;;;;;;;5019903;28;20384;-85
2023/05/22 12:44:56;;;;;;;4.10;3.70;;;;;;;;;;5027118;28;20466;-85
2023/05/22 12:47:23;;;;;;;5.00;3.90;;;;;;;;;;5030951;28;20414;-91
2023/05/22 12:49:50;;;;;;;4.25;3.80;;;;;;;;;;5037675;28;20445;-87
2023/05/22 12:52:16;;;;;;;4.10;3.70;;;;;;;;;;5038307;28;20380;-86
2023/05/22 12:54:42;;;;;;;5.15;4.07;;;;;;;;;;5040217;28;20414;-86
2023/05/22 12:57:08;;;;;;;5.28;4.60;;;;;;;;;;5036302;28;20415;-88
2023/05/22 12:59:35;;;;;;;4.97;4.47;;;;;;;;;;5039804;28;20387;-86
2023/05/22 13:02:02;;;;;;;3.97;3.67;;;;;;;;;;5020979;28;21000;-87
2023/05/22 13:04:28;;;;;;;6.22;5.18;;;;;;;;;;5018571;28;20765;-87
2023/05/22 13:06:54;;;;;;;6.03;4.90;;;;;;;;;;5020512;28;20375;-87
2023/05/22 13:09:20;;;;;;;4.35;3.95;;;;;;;;;;5018718;28;20774;-88
2023/05/22 13:11:47;;;;;;;5.65;3.95;;;;;;;;;;5020228;28;20381;-87
2023/05/22 13:14:16;;;;;;;5.00;3.73;;;;;;;;;;5023286;28;20389;-85
2023/05/22 13:16:42;;;;;;;7.35;4.05;;;;;;;;;;5030333;28;20387;-87
2023/05/22 13:19:08;;;;;;;5.03;3.60;;;;;;;;;;5030054;28;20389;-87
2023/05/22 13:21:34;;;;;;;4.30;3.90;;;;;;;;;;5023740;28;20464;-85
2023/05/22 13:24:00;;;;;;;16.77;4.32;;;;;;;;;;5013654;28;20389;-87
2023/05/22 13:26:26;;;;;;;77.45;7.18;;;;;;;;;;5015767;28;20384;-86
2023/05/22 13:28:52;;;;;;;5.13;4.38;;;;;;;;;;5013112;28;20415;-87
2023/05/22 13:31:19;;;;;;;6.90;4.07;;;;;;;;;;5014890;28;21089;-87
2023/05/22 13:33:45;;;;;;;9.02;3.92;;;;;;;;;;5013072;28;20377;-87
2023/05/22 13:36:11;;;;;;;9.10;4.20;;;;;;;;;;5015781;28;20430;-87
2023/05/22 13:38:37;;;;;;;4.10;3.60;;;;;;;;;;5014204;28;20377;-87
2023/05/22 13:41:03;;;;;;;7.72;3.90;;;;;;;;;;5015723;28;20923;-86
2023/05/22 13:43:29;;;;;;;4.25;3.60;;;;;;;;;;5014023;28;20388;-86
2023/05/22 13:45:55;;;;;;;14.83;4.33;;;;;;;;;;5014322;28;20380;-88
2023/05/22 13:48:21;;;;;;;4.88;3.75;;;;;;;;;;5015292;28;20385;-88
2023/05/22 13:50:47;;;;;;;16.83;4.35;;;;;;;;;;5016858;28;20981;-87
2023/05/22 13:53:13;;;;;;;13.20;3.90;;;;;;;;;;5015532;28;20856;-87
2023/05/22 13:55:39;;;;;;;8.10;3.70;;;;;;;;;;5014433;28;20464;-87
2023/05/22 13:58:05;;;;;;;13.77;3.85;;;;;;;;;;5015394;28;20730;-89
2023/05/22 14:00:31;;;;;;;8.33;3.80;;;;;;;;;;5026704;28;20379;-88
2023/05/22 14:02:57;;;;;;;7.17;3.77;;;;;;;;;;5013067;28;20443;-88
2023/05/22 14:05:23;;;;;;;5.07;3.60;;;;;;;;;;5026921;28;20482;-89
2023/05/22 14:07:50;;;;;;;3.90;3.60;;;;;;;;;;5018997;28;20407;-89
2023/05/22 14:10:16;;;;;;;3.80;3.50;;;;;;;;;;5032399;28;20418;-88
2023/05/22 14:12:42;;;;;;;3.83;3.53;;;;;;;;;;5013284;28;20385;-89
2023/05/22 14:15:08;;;;;;;3.90;3.60;;;;;;;;;;5013059;28;20723;-89
2023/05/22 14:17:34;;;;;;;4.03;3.70;;;;;;;;;;5012778;28;20387;-89
2023/05/22 14:20:00;;;;;;;3.72;3.40;;;;;;;;;;5012545;28;20380;-90
2023/05/22 14:22:26;;;;;;;4.20;3.90;;;;;;;;;;5012569;28;20384;-88
2023/05/22 14:24:52;;;;;;;3.90;3.60;;;;;;;;;;5012763;28;20859;-89
2023/05/22 14:27:18;;;;;;;3.75;3.45;;;;;;;;;;5012705;28;20419;-87
2023/05/22 14:29:44;;;;;;;3.63;3.33;;;;;;;;;;5012057;28;20422;-88
2023/05/22 14:32:10;;;;;;;3.90;3.60;;;;;;;;;;5012604;28;20381;-87
2023/05/22 14:34:36;;;;;;;3.95;3.63;;;;;;;;;;5012370;28;20392;-89
2023/05/22 14:37:02;;;;;;;3.83;3.47;;;;;;;;;;5012537;28;20381;-88
2023/05/22 14:39:28;;;;;;;3.80;3.40;;;;;;;;;;5012018;28;20385;-88
2023/05/22 14:41:54;;;;;;;3.45;3.25;;;;;;;;;;5011776;28;20712;-88